sensor_id;sensor_type;location;lat;lon;timestamp;P1;durP1;ratioP1;P2;durP2;ratioP2
6027;SDS011;3042;43.194;27.646;2024-02-21T00:00:51;28.33;;;26.00;;
6027;SDS011;3042;43.194;27.646;2024-02-21T00:03:18;23.80;;;21.40;;
6027;SDS011;3042;43.194;27.646;2024-02-21T00:05:46;22.60;;;20.50;;
6027;SDS011;3042;43.194;27.646;2024-02-21T00:08:13;19.23;;;17.80;;
6027;SDS011;3042;43.194;27.646;2024-02-21T00:10:40;20.67;;;18.97;;
6027;SDS011;3042;43.194;27.646;2024-02-21T00:13:07;19.30;;;17.53;;
6027;SDS011;3042;43.194;27.646;2024-02-21T00:15:36;20.00;;;17.20;;
6027;SDS011;3042;43.194;27.646;2024-02-21T00:18:04;18.63;;;17.10;;
6027;SDS011;3042;43.194;27.646;2024-02-21T00:20:31;18.63;;;16.93;;
6027;SDS011;3042;43.194;27.646;2024-02-21T00:22:58;20.40;;;18.83;;
6027;SDS011;3042;43.194;27.646;2024-02-21T00:25:25;17.27;;;15.77;;
6027;SDS011;3042;43.194;27.646;2024-02-21T00:27:52;20.03;;;18.53;;
6027;SDS011;3042;43.194;27.646;2024-02-21T00:30:20;19.53;;;17.77;;
6027;SDS011;3042;43.194;27.646;2024-02-21T00:32:48;18.53;;;16.83;;
6027;SDS011;3042;43.194;27.646;2024-02-21T00:35:16;20.92;;;19.33;;
6027;SDS011;3042;43.194;27.646;2024-02-21T00:37:43;19.97;;;18.37;;
6027;SDS011;3042;43.194;27.646;2024-02-21T00:40:10;19.87;;;18.37;;
6027;SDS011;3042;43.194;27.646;2024-02-21T00:42:38;19.07;;;17.57;;
6027;SDS011;3042;43.194;27.646;2024-02-21T00:45:05;30.20;;;21.60;;
6027;SDS011;3042;43.194;27.646;2024-02-21T00:47:33;22.50;;;20.50;;
6027;SDS011;3042;43.194;27.646;2024-02-21T00:50:02;21.30;;;16.43;;
6027;SDS011;3042;43.194;27.646;2024-02-21T00:52:29;19.03;;;17.37;;
6027;SDS011;3042;43.194;27.646;2024-02-21T00:54:56;19.23;;;17.50;;
6027;SDS011;3042;43.194;27.646;2024-02-21T00:57:24;18.10;;;16.53;;
6027;SDS011;3042;43.194;27.646;2024-02-21T00:59:51;18.40;;;16.67;;
6027;SDS011;3042;43.194;27.646;2024-02-21T01:02:18;18.17;;;16.73;;
6027;SDS011;3042;43.194;27.646;2024-02-21T01:04:45;18.77;;;16.97;;
6027;SDS011;3042;43.194;27.646;2024-02-21T01:07:14;20.87;;;18.97;;
6027;SDS011;3042;43.194;27.646;2024-02-21T01:09:41;21.00;;;19.07;;
6027;SDS011;3042;43.194;27.646;2024-02-21T01:12:08;19.33;;;17.37;;
6027;SDS011;3042;43.194;27.646;2024-02-21T01:14:35;19.37;;;17.70;;
6027;SDS011;3042;43.194;27.646;2024-02-21T01:17:03;21.20;;;19.07;;
6027;SDS011;3042;43.194;27.646;2024-02-21T01:19:31;21.83;;;19.73;;
6027;SDS011;3042;43.194;27.646;2024-02-21T01:21:58;20.90;;;18.83;;
6027;SDS011;3042;43.194;27.646;2024-02-21T01:24:27;20.27;;;18.37;;
6027;SDS011;3042;43.194;27.646;2024-02-21T01:26:54;20.90;;;19.17;;
6027;SDS011;3042;43.194;27.646;2024-02-21T01:29:21;21.13;;;19.33;;
6027;SDS011;3042;43.194;27.646;2024-02-21T01:31:48;20.20;;;18.23;;
6027;SDS011;3042;43.194;27.646;2024-02-21T01:34:16;20.83;;;19.13;;
6027;SDS011;3042;43.194;27.646;2024-02-21T01:36:43;21.83;;;19.73;;
6027;SDS011;3042;43.194;27.646;2024-02-21T01:39:10;22.00;;;19.87;;
6027;SDS011;3042;43.194;27.646;2024-02-21T01:41:39;20.97;;;19.03;;
6027;SDS011;3042;43.194;27.646;2024-02-21T01:44:06;22.60;;;20.37;;
6027;SDS011;3042;43.194;27.646;2024-02-21T01:46:33;22.13;;;20.23;;
6027;SDS011;3042;43.194;27.646;2024-02-21T01:49:01;21.27;;;19.57;;
6027;SDS011;3042;43.194;27.646;2024-02-21T01:51:30;20.97;;;19.20;;
6027;SDS011;3042;43.194;27.646;2024-02-21T01:53:57;20.93;;;19.30;;
6027;SDS011;3042;43.194;27.646;2024-02-21T01:56:25;21.77;;;19.77;;
6027;SDS011;3042;43.194;27.646;2024-02-21T01:58:54;20.63;;;18.53;;
6027;SDS011;3042;43.194;27.646;2024-02-21T02:01:22;21.30;;;19.37;;
6027;SDS011;3042;43.194;27.646;2024-02-21T02:03:49;22.20;;;20.30;;
6027;SDS011;3042;43.194;27.646;2024-02-21T02:06:18;21.77;;;19.73;;
6027;SDS011;3042;43.194;27.646;2024-02-21T02:08:45;22.33;;;20.30;;
6027;SDS011;3042;43.194;27.646;2024-02-21T02:11:13;22.97;;;20.50;;
6027;SDS011;3042;43.194;27.646;2024-02-21T02:13:41;19.47;;;17.50;;
6027;SDS011;3042;43.194;27.646;2024-02-21T02:16:09;19.03;;;17.10;;
6027;SDS011;3042;43.194;27.646;2024-02-21T02:18:36;22.57;;;18.60;;
6027;SDS011;3042;43.194;27.646;2024-02-21T02:21:04;20.90;;;19.20;;
6027;SDS011;3042;43.194;27.646;2024-02-21T02:23:36;17.97;;;16.23;;
6027;SDS011;3042;43.194;27.646;2024-02-21T02:26:03;19.67;;;17.77;;
6027;SDS011;3042;43.194;27.646;2024-02-21T02:28:32;23.83;;;18.90;;
6027;SDS011;3042;43.194;27.646;2024-02-21T02:30:59;20.17;;;18.40;;
6027;SDS011;3042;43.194;27.646;2024-02-21T02:33:26;19.97;;;16.30;;
6027;SDS011;3042;43.194;27.646;2024-02-21T02:35:54;18.00;;;16.27;;
6027;SDS011;3042;43.194;27.646;2024-02-21T02:38:21;23.73;;;21.50;;
6027;SDS011;3042;43.194;27.646;2024-02-21T02:40:49;20.30;;;18.67;;
6027;SDS011;3042;43.194;27.646;2024-02-21T02:43:17;20.02;;;18.42;;
6027;SDS011;3042;43.194;27.646;2024-02-21T02:45:44;24.37;;;19.80;;
6027;SDS011;3042;43.194;27.646;2024-02-21T02:48:11;19.73;;;17.77;;
6027;SDS011;3042;43.194;27.646;2024-02-21T02:50:38;21.10;;;19.20;;
6027;SDS011;3042;43.194;27.646;2024-02-21T02:53:05;22.27;;;20.10;;
6027;SDS011;3042;43.194;27.646;2024-02-21T02:55:33;23.00;;;20.93;;
6027;SDS011;3042;43.194;27.646;2024-02-21T02:58:04;19.77;;;17.97;;
6027;SDS011;3042;43.194;27.646;2024-02-21T03:00:31;20.57;;;18.53;;
6027;SDS011;3042;43.194;27.646;2024-02-21T03:03:01;21.40;;;19.70;;
6027;SDS011;3042;43.194;27.646;2024-02-21T03:05:29;21.47;;;19.67;;
6027;SDS011;3042;43.194;27.646;2024-02-21T03:07:57;23.83;;;20.73;;
6027;SDS011;3042;43.194;27.646;2024-02-21T03:10:24;23.00;;;20.97;;
6027;SDS011;3042;43.194;27.646;2024-02-21T03:12:51;21.97;;;19.97;;
6027;SDS011;3042;43.194;27.646;2024-02-21T03:15:20;22.03;;;19.87;;
6027;SDS011;3042;43.194;27.646;2024-02-21T03:17:47;26.83;;;19.23;;
6027;SDS011;3042;43.194;27.646;2024-02-21T03:20:14;21.07;;;19.10;;
6027;SDS011;3042;43.194;27.646;2024-02-21T03:22:42;22.37;;;20.40;;
6027;SDS011;3042;43.194;27.646;2024-02-21T03:25:09;22.63;;;20.60;;
6027;SDS011;3042;43.194;27.646;2024-02-21T03:27:37;21.73;;;19.87;;
6027;SDS011;3042;43.194;27.646;2024-02-21T03:30:05;21.17;;;18.97;;
6027;SDS011;3042;43.194;27.646;2024-02-21T03:32:35;22.40;;;20.70;;
6027;SDS011;3042;43.194;27.646;2024-02-21T03:35:04;22.37;;;20.30;;
6027;SDS011;3042;43.194;27.646;2024-02-21T03:37:32;25.70;;;21.97;;
6027;SDS011;3042;43.194;27.646;2024-02-21T03:39:59;22.53;;;20.63;;
6027;SDS011;3042;43.194;27.646;2024-02-21T03:42:27;23.20;;;21.30;;
6027;SDS011;3042;43.194;27.646;2024-02-21T03:44:56;22.67;;;20.67;;
6027;SDS011;3042;43.194;27.646;2024-02-21T03:47:23;23.87;;;21.57;;
6027;SDS011;3042;43.194;27.646;2024-02-21T03:49:52;22.77;;;20.57;;
6027;SDS011;3042;43.194;27.646;2024-02-21T03:52:19;18.57;;;17.17;;
6027;SDS011;3042;43.194;27.646;2024-02-21T03:54:46;21.40;;;17.00;;
6027;SDS011;3042;43.194;27.646;2024-02-21T03:57:14;18.90;;;17.30;;
6027;SDS011;3042;43.194;27.646;2024-02-21T03:59:42;20.77;;;18.80;;
6027;SDS011;3042;43.194;27.646;2024-02-21T04:02:09;21.87;;;18.30;;
6027;SDS011;3042;43.194;27.646;2024-02-21T04:04:37;19.47;;;17.90;;
6027;SDS011;3042;43.194;27.646;2024-02-21T04:07:06;18.13;;;16.83;;
6027;SDS011;3042;43.194;27.646;2024-02-21T04:09:33;18.87;;;17.50;;
6027;SDS011;3042;43.194;27.646;2024-02-21T04:12:01;19.47;;;18.07;;
6027;SDS011;3042;43.194;27.646;2024-02-21T04:14:28;20.47;;;18.93;;
6027;SDS011;3042;43.194;27.646;2024-02-21T04:16:55;20.77;;;19.30;;
6027;SDS011;3042;43.194;27.646;2024-02-21T04:19:25;19.50;;;17.77;;
6027;SDS011;3042;43.194;27.646;2024-02-21T04:21:53;19.40;;;17.77;;
6027;SDS011;3042;43.194;27.646;2024-02-21T04:24:21;20.67;;;19.17;;
6027;SDS011;3042;43.194;27.646;2024-02-21T04:26:49;19.73;;;17.80;;
6027;SDS011;3042;43.194;27.646;2024-02-21T04:29:16;19.30;;;17.73;;
6027;SDS011;3042;43.194;27.646;2024-02-21T04:31:43;20.53;;;18.50;;
6027;SDS011;3042;43.194;27.646;2024-02-21T04:34:10;20.47;;;18.97;;
6027;SDS011;3042;43.194;27.646;2024-02-21T04:36:37;18.80;;;17.40;;
6027;SDS011;3042;43.194;27.646;2024-02-21T04:39:05;19.63;;;18.13;;
6027;SDS011;3042;43.194;27.646;2024-02-21T04:41:33;23.20;;;21.17;;
6027;SDS011;3042;43.194;27.646;2024-02-21T04:44:00;23.27;;;20.67;;
6027;SDS011;3042;43.194;27.646;2024-02-21T04:46:29;21.83;;;20.03;;
6027;SDS011;3042;43.194;27.646;2024-02-21T04:48:56;20.33;;;18.80;;
6027;SDS011;3042;43.194;27.646;2024-02-21T04:51:24;22.20;;;20.30;;
6027;SDS011;3042;43.194;27.646;2024-02-21T04:53:51;21.90;;;20.03;;
6027;SDS011;3042;43.194;27.646;2024-02-21T04:56:19;21.07;;;19.27;;
6027;SDS011;3042;43.194;27.646;2024-02-21T04:58:48;20.37;;;18.73;;
6027;SDS011;3042;43.194;27.646;2024-02-21T05:01:15;19.40;;;17.87;;
6027;SDS011;3042;43.194;27.646;2024-02-21T05:03:42;19.00;;;17.40;;
6027;SDS011;3042;43.194;27.646;2024-02-21T05:06:09;22.87;;;20.90;;
6027;SDS011;3042;43.194;27.646;2024-02-21T05:08:37;24.20;;;22.20;;
6027;SDS011;3042;43.194;27.646;2024-02-21T05:11:05;23.03;;;20.73;;
6027;SDS011;3042;43.194;27.646;2024-02-21T05:13:33;24.00;;;21.50;;
6027;SDS011;3042;43.194;27.646;2024-02-21T05:16:02;23.63;;;21.10;;
6027;SDS011;3042;43.194;27.646;2024-02-21T05:18:29;24.20;;;22.00;;
6027;SDS011;3042;43.194;27.646;2024-02-21T05:20:56;25.23;;;22.80;;
6027;SDS011;3042;43.194;27.646;2024-02-21T05:23:24;23.87;;;21.20;;
6027;SDS011;3042;43.194;27.646;2024-02-21T05:25:54;28.73;;;23.60;;
6027;SDS011;3042;43.194;27.646;2024-02-21T05:28:21;27.53;;;25.03;;
6027;SDS011;3042;43.194;27.646;2024-02-21T05:30:48;30.20;;;27.40;;
6027;SDS011;3042;43.194;27.646;2024-02-21T05:33:17;24.80;;;22.50;;
6027;SDS011;3042;43.194;27.646;2024-02-21T05:35:46;26.60;;;24.30;;
6027;SDS011;3042;43.194;27.646;2024-02-21T05:38:14;27.27;;;24.80;;
6027;SDS011;3042;43.194;27.646;2024-02-21T05:40:41;24.90;;;22.90;;
6027;SDS011;3042;43.194;27.646;2024-02-21T05:43:08;28.10;;;25.47;;
6027;SDS011;3042;43.194;27.646;2024-02-21T05:45:36;29.03;;;22.87;;
6027;SDS011;3042;43.194;27.646;2024-02-21T05:48:03;29.77;;;21.87;;
6027;SDS011;3042;43.194;27.646;2024-02-21T05:50:32;24.27;;;22.07;;
6027;SDS011;3042;43.194;27.646;2024-02-21T05:52:59;27.10;;;24.13;;
6027;SDS011;3042;43.194;27.646;2024-02-21T05:55:27;28.40;;;26.00;;
6027;SDS011;3042;43.194;27.646;2024-02-21T05:57:54;31.03;;;28.03;;
6027;SDS011;3042;43.194;27.646;2024-02-21T06:00:21;31.47;;;26.90;;
6027;SDS011;3042;43.194;27.646;2024-02-21T06:02:49;29.37;;;26.07;;
6027;SDS011;3042;43.194;27.646;2024-02-21T06:05:16;28.03;;;25.10;;
6027;SDS011;3042;43.194;27.646;2024-02-21T06:08:05;29.17;;;26.40;;
6027;SDS011;3042;43.194;27.646;2024-02-21T06:10:33;34.70;;;27.20;;
6027;SDS011;3042;43.194;27.646;2024-02-21T06:13:00;31.10;;;28.27;;
6027;SDS011;3042;43.194;27.646;2024-02-21T06:15:27;31.13;;;28.23;;
6027;SDS011;3042;43.194;27.646;2024-02-21T06:17:54;31.00;;;27.10;;
6027;SDS011;3042;43.194;27.646;2024-02-21T06:20:21;25.63;;;22.93;;
6027;SDS011;3042;43.194;27.646;2024-02-21T06:22:49;27.43;;;24.37;;
6027;SDS011;3042;43.194;27.646;2024-02-21T06:25:17;29.90;;;24.83;;
6027;SDS011;3042;43.194;27.646;2024-02-21T06:27:45;36.83;;;28.10;;
6027;SDS011;3042;43.194;27.646;2024-02-21T06:30:12;32.53;;;29.13;;
6027;SDS011;3042;43.194;27.646;2024-02-21T06:32:40;30.63;;;26.70;;
6027;SDS011;3042;43.194;27.646;2024-02-21T06:35:07;29.53;;;26.40;;
6027;SDS011;3042;43.194;27.646;2024-02-21T06:37:34;40.07;;;26.83;;
6027;SDS011;3042;43.194;27.646;2024-02-21T06:40:03;37.00;;;27.00;;
6027;SDS011;3042;43.194;27.646;2024-02-21T06:42:32;33.00;;;28.60;;
6027;SDS011;3042;43.194;27.646;2024-02-21T06:45:00;33.97;;;25.10;;
6027;SDS011;3042;43.194;27.646;2024-02-21T06:47:27;29.20;;;24.30;;
6027;SDS011;3042;43.194;27.646;2024-02-21T06:49:54;25.63;;;23.03;;
6027;SDS011;3042;43.194;27.646;2024-02-21T06:52:21;32.00;;;22.80;;
6027;SDS011;3042;43.194;27.646;2024-02-21T06:54:50;30.93;;;22.53;;
6027;SDS011;3042;43.194;27.646;2024-02-21T06:57:17;33.83;;;23.80;;
6027;SDS011;3042;43.194;27.646;2024-02-21T06:59:45;25.30;;;22.60;;
6027;SDS011;3042;43.194;27.646;2024-02-21T07:02:13;28.53;;;22.37;;
6027;SDS011;3042;43.194;27.646;2024-02-21T07:04:40;28.53;;;22.70;;
6027;SDS011;3042;43.194;27.646;2024-02-21T07:07:08;26.27;;;22.92;;
6027;SDS011;3042;43.194;27.646;2024-02-21T07:09:36;27.20;;;22.33;;
6027;SDS011;3042;43.194;27.646;2024-02-21T07:12:04;25.97;;;23.27;;
6027;SDS011;3042;43.194;27.646;2024-02-21T07:14:32;26.00;;;22.33;;
6027;SDS011;3042;43.194;27.646;2024-02-21T07:17:00;25.57;;;22.90;;
6027;SDS011;3042;43.194;27.646;2024-02-21T07:19:28;26.03;;;22.00;;
6027;SDS011;3042;43.194;27.646;2024-02-21T07:21:55;64.37;;;24.80;;
6027;SDS011;3042;43.194;27.646;2024-02-21T07:24:23;25.70;;;23.10;;
6027;SDS011;3042;43.194;27.646;2024-02-21T07:26:50;38.03;;;25.30;;
6027;SDS011;3042;43.194;27.646;2024-02-21T07:29:18;64.40;;;25.17;;
6027;SDS011;3042;43.194;27.646;2024-02-21T07:31:45;24.90;;;22.10;;
6027;SDS011;3042;43.194;27.646;2024-02-21T07:34:15;26.87;;;21.20;;
6027;SDS011;3042;43.194;27.646;2024-02-21T07:36:42;28.73;;;22.73;;
6027;SDS011;3042;43.194;27.646;2024-02-21T07:39:10;25.97;;;22.77;;
6027;SDS011;3042;43.194;27.646;2024-02-21T07:41:37;27.88;;;24.83;;
6027;SDS011;3042;43.194;27.646;2024-02-21T07:44:06;36.40;;;24.93;;
6027;SDS011;3042;43.194;27.646;2024-02-21T07:46:33;29.20;;;23.27;;
6027;SDS011;3042;43.194;27.646;2024-02-21T07:49:01;41.23;;;29.37;;
6027;SDS011;3042;43.194;27.646;2024-02-21T07:51:30;27.83;;;22.07;;
6027;SDS011;3042;43.194;27.646;2024-02-21T07:53:57;51.00;;;37.80;;
6027;SDS011;3042;43.194;27.646;2024-02-21T07:56:27;32.90;;;27.10;;
6027;SDS011;3042;43.194;27.646;2024-02-21T07:58:55;27.83;;;24.87;;
6027;SDS011;3042;43.194;27.646;2024-02-21T08:01:22;22.93;;;20.60;;
6027;SDS011;3042;43.194;27.646;2024-02-21T08:03:49;26.27;;;23.77;;
6027;SDS011;3042;43.194;27.646;2024-02-21T08:06:16;23.17;;;19.00;;
6027;SDS011;3042;43.194;27.646;2024-02-21T08:08:45;26.13;;;23.33;;
6027;SDS011;3042;43.194;27.646;2024-02-21T08:11:12;32.10;;;25.00;;
6027;SDS011;3042;43.194;27.646;2024-02-21T08:13:39;28.90;;;25.70;;
6027;SDS011;3042;43.194;27.646;2024-02-21T08:16:06;27.80;;;24.50;;
6027;SDS011;3042;43.194;27.646;2024-02-21T08:18:34;27.00;;;24.57;;
6027;SDS011;3042;43.194;27.646;2024-02-21T08:21:03;35.73;;;24.43;;
6027;SDS011;3042;43.194;27.646;2024-02-21T08:23:31;26.93;;;24.13;;
6027;SDS011;3042;43.194;27.646;2024-02-21T08:26:02;28.43;;;25.50;;
6027;SDS011;3042;43.194;27.646;2024-02-21T08:28:31;27.80;;;25.07;;
6027;SDS011;3042;43.194;27.646;2024-02-21T08:31:00;27.83;;;23.10;;
6027;SDS011;3042;43.194;27.646;2024-02-21T08:33:29;26.73;;;23.90;;
6027;SDS011;3042;43.194;27.646;2024-02-21T08:36:00;28.03;;;23.20;;
6027;SDS011;3042;43.194;27.646;2024-02-21T08:38:33;28.20;;;25.50;;
6027;SDS011;3042;43.194;27.646;2024-02-21T08:41:02;27.07;;;24.17;;
6027;SDS011;3042;43.194;27.646;2024-02-21T08:43:31;27.20;;;24.60;;
6027;SDS011;3042;43.194;27.646;2024-02-21T08:46:00;30.50;;;25.07;;
6027;SDS011;3042;43.194;27.646;2024-02-21T08:48:27;28.83;;;25.73;;
6027;SDS011;3042;43.194;27.646;2024-02-21T08:50:54;27.30;;;24.43;;
6027;SDS011;3042;43.194;27.646;2024-02-21T08:53:21;28.50;;;25.70;;
6027;SDS011;3042;43.194;27.646;2024-02-21T08:55:49;29.20;;;26.10;;
6027;SDS011;3042;43.194;27.646;2024-02-21T08:58:17;27.10;;;24.60;;
6027;SDS011;3042;43.194;27.646;2024-02-21T09:00:48;28.67;;;25.77;;
6027;SDS011;3042;43.194;27.646;2024-02-21T09:03:16;27.00;;;24.40;;
6027;SDS011;3042;43.194;27.646;2024-02-21T09:05:45;26.33;;;23.63;;
6027;SDS011;3042;43.194;27.646;2024-02-21T09:08:12;32.30;;;28.90;;
6027;SDS011;3042;43.194;27.646;2024-02-21T09:10:39;27.70;;;25.00;;
6027;SDS011;3042;43.194;27.646;2024-02-21T09:13:06;38.63;;;26.30;;
6027;SDS011;3042;43.194;27.646;2024-02-21T09:15:35;29.20;;;25.77;;
6027;SDS011;3042;43.194;27.646;2024-02-21T09:18:02;28.03;;;25.23;;
6027;SDS011;3042;43.194;27.646;2024-02-21T09:20:30;41.20;;;24.80;;
6027;SDS011;3042;43.194;27.646;2024-02-21T09:22:57;26.73;;;24.00;;
6027;SDS011;3042;43.194;27.646;2024-02-21T09:25:25;27.73;;;25.10;;
6027;SDS011;3042;43.194;27.646;2024-02-21T09:27:53;27.00;;;24.50;;
6027;SDS011;3042;43.194;27.646;2024-02-21T09:30:21;29.50;;;25.97;;
6027;SDS011;3042;43.194;27.646;2024-02-21T09:32:50;44.13;;;34.60;;
6027;SDS011;3042;43.194;27.646;2024-02-21T09:35:18;29.93;;;25.80;;
6027;SDS011;3042;43.194;27.646;2024-02-21T09:37:47;29.00;;;26.20;;
6027;SDS011;3042;43.194;27.646;2024-02-21T09:40:15;28.03;;;24.90;;
6027;SDS011;3042;43.194;27.646;2024-02-21T09:42:43;32.73;;;26.83;;
6027;SDS011;3042;43.194;27.646;2024-02-21T09:45:14;29.30;;;26.37;;
6027;SDS011;3042;43.194;27.646;2024-02-21T09:47:50;36.80;;;30.60;;
6027;SDS011;3042;43.194;27.646;2024-02-21T09:50:24;53.63;;;35.70;;
6027;SDS011;3042;43.194;27.646;2024-02-21T09:52:52;29.53;;;26.50;;
6027;SDS011;3042;43.194;27.646;2024-02-21T09:55:22;32.53;;;29.17;;
6027;SDS011;3042;43.194;27.646;2024-02-21T09:57:50;36.33;;;28.53;;
6027;SDS011;3042;43.194;27.646;2024-02-21T10:00:19;31.07;;;27.67;;
6027;SDS011;3042;43.194;27.646;2024-02-21T10:02:48;27.90;;;25.10;;
6027;SDS011;3042;43.194;27.646;2024-02-21T10:05:16;27.33;;;24.70;;
6027;SDS011;3042;43.194;27.646;2024-02-21T10:07:46;28.60;;;25.57;;
6027;SDS011;3042;43.194;27.646;2024-02-21T10:10:25;29.07;;;26.20;;
6027;SDS011;3042;43.194;27.646;2024-02-21T10:12:55;33.03;;;28.87;;
6027;SDS011;3042;43.194;27.646;2024-02-21T10:15:24;32.53;;;28.73;;
6027;SDS011;3042;43.194;27.646;2024-02-21T10:17:59;37.67;;;30.73;;
6027;SDS011;3042;43.194;27.646;2024-02-21T10:20:34;29.07;;;26.00;;
6027;SDS011;3042;43.194;27.646;2024-02-21T10:23:12;30.87;;;27.77;;
6027;SDS011;3042;43.194;27.646;2024-02-21T10:26:04;34.47;;;26.67;;
6027;SDS011;3042;43.194;27.646;2024-02-21T10:28:32;29.33;;;26.23;;
6027;SDS011;3042;43.194;27.646;2024-02-21T10:31:00;27.87;;;25.00;;
6027;SDS011;3042;43.194;27.646;2024-02-21T10:33:30;27.53;;;24.93;;
6027;SDS011;3042;43.194;27.646;2024-02-21T10:36:05;26.93;;;23.50;;
6027;SDS011;3042;43.194;27.646;2024-02-21T10:38:34;27.77;;;24.90;;
6027;SDS011;3042;43.194;27.646;2024-02-21T10:41:02;26.77;;;24.00;;
6027;SDS011;3042;43.194;27.646;2024-02-21T10:43:32;27.60;;;24.80;;
6027;SDS011;3042;43.194;27.646;2024-02-21T10:46:05;30.63;;;27.53;;
6027;SDS011;3042;43.194;27.646;2024-02-21T10:48:37;29.27;;;25.30;;
6027;SDS011;3042;43.194;27.646;2024-02-21T10:51:16;28.20;;;24.63;;
6027;SDS011;3042;43.194;27.646;2024-02-21T10:53:45;26.73;;;24.03;;
6027;SDS011;3042;43.194;27.646;2024-02-21T10:56:21;27.73;;;24.83;;
6027;SDS011;3042;43.194;27.646;2024-02-21T10:58:52;28.03;;;25.30;;
6027;SDS011;3042;43.194;27.646;2024-02-21T11:01:20;29.27;;;24.10;;
6027;SDS011;3042;43.194;27.646;2024-02-21T11:03:51;28.13;;;24.53;;
6027;SDS011;3042;43.194;27.646;2024-02-21T11:06:21;29.83;;;24.10;;
6027;SDS011;3042;43.194;27.646;2024-02-21T11:08:59;36.87;;;25.03;;
6027;SDS011;3042;43.194;27.646;2024-02-21T11:11:30;38.43;;;25.67;;
6027;SDS011;3042;43.194;27.646;2024-02-21T11:14:04;35.60;;;22.87;;
6027;SDS011;3042;43.194;27.646;2024-02-21T11:16:35;27.70;;;24.57;;
6027;SDS011;3042;43.194;27.646;2024-02-21T11:19:06;30.50;;;26.75;;
6027;SDS011;3042;43.194;27.646;2024-02-21T11:21:35;26.03;;;23.33;;
6027;SDS011;3042;43.194;27.646;2024-02-21T11:24:02;28.53;;;25.83;;
6027;SDS011;3042;43.194;27.646;2024-02-21T11:26:31;25.37;;;22.87;;
6027;SDS011;3042;43.194;27.646;2024-02-21T11:28:59;25.80;;;23.23;;
6027;SDS011;3042;43.194;27.646;2024-02-21T11:31:37;27.93;;;24.83;;
6027;SDS011;3042;43.194;27.646;2024-02-21T11:34:09;26.93;;;24.20;;
6027;SDS011;3042;43.194;27.646;2024-02-21T11:36:45;34.43;;;24.80;;
6027;SDS011;3042;43.194;27.646;2024-02-21T11:39:18;29.17;;;24.10;;
6027;SDS011;3042;43.194;27.646;2024-02-21T11:44:33;34.37;;;29.53;;
6027;SDS011;3042;43.194;27.646;2024-02-21T11:47:03;32.23;;;27.80;;
6027;SDS011;3042;43.194;27.646;2024-02-21T11:49:37;28.93;;;24.70;;
6027;SDS011;3042;43.194;27.646;2024-02-21T11:52:05;37.60;;;34.00;;
6027;SDS011;3042;43.194;27.646;2024-02-21T11:54:33;33.60;;;27.33;;
6027;SDS011;3042;43.194;27.646;2024-02-21T11:57:00;27.07;;;24.37;;
6027;SDS011;3042;43.194;27.646;2024-02-21T11:59:29;27.50;;;24.80;;
6027;SDS011;3042;43.194;27.646;2024-02-21T12:01:58;24.10;;;21.80;;
6027;SDS011;3042;43.194;27.646;2024-02-21T12:04:25;28.23;;;22.67;;
6027;SDS011;3042;43.194;27.646;2024-02-21T12:06:55;25.80;;;23.00;;
6027;SDS011;3042;43.194;27.646;2024-02-21T12:09:24;33.50;;;23.47;;
6027;SDS011;3042;43.194;27.646;2024-02-21T12:11:58;24.13;;;22.00;;
6027;SDS011;3042;43.194;27.646;2024-02-21T12:14:27;42.33;;;24.53;;
6027;SDS011;3042;43.194;27.646;2024-02-21T12:16:55;28.77;;;24.13;;
6027;SDS011;3042;43.194;27.646;2024-02-21T12:19:22;29.13;;;24.10;;
6027;SDS011;3042;43.194;27.646;2024-02-21T12:21:50;32.27;;;28.27;;
6027;SDS011;3042;43.194;27.646;2024-02-21T12:24:20;29.27;;;26.03;;
6027;SDS011;3042;43.194;27.646;2024-02-21T12:26:48;28.40;;;25.50;;
6027;SDS011;3042;43.194;27.646;2024-02-21T12:29:17;25.30;;;23.00;;
6027;SDS011;3042;43.194;27.646;2024-02-21T12:31:44;35.50;;;27.90;;
6027;SDS011;3042;43.194;27.646;2024-02-21T12:34:11;27.83;;;25.03;;
6027;SDS011;3042;43.194;27.646;2024-02-21T12:36:41;32.27;;;27.50;;
6027;SDS011;3042;43.194;27.646;2024-02-21T12:39:09;66.60;;;39.80;;
6027;SDS011;3042;43.194;27.646;2024-02-21T12:41:38;39.43;;;26.97;;
6027;SDS011;3042;43.194;27.646;2024-02-21T12:44:06;33.43;;;24.60;;
6027;SDS011;3042;43.194;27.646;2024-02-21T12:46:33;30.38;;;27.15;;
6027;SDS011;3042;43.194;27.646;2024-02-21T12:49:00;27.47;;;24.67;;
6027;SDS011;3042;43.194;27.646;2024-02-21T12:51:28;70.50;;;26.37;;
6027;SDS011;3042;43.194;27.646;2024-02-21T12:53:55;27.13;;;22.20;;
6027;SDS011;3042;43.194;27.646;2024-02-21T12:56:23;26.00;;;22.73;;
6027;SDS011;3042;43.194;27.646;2024-02-21T12:58:53;31.70;;;23.70;;
6027;SDS011;3042;43.194;27.646;2024-02-21T13:01:20;26.50;;;19.90;;
6027;SDS011;3042;43.194;27.646;2024-02-21T13:03:48;22.27;;;20.10;;
6027;SDS011;3042;43.194;27.646;2024-02-21T13:06:15;22.87;;;20.90;;
6027;SDS011;3042;43.194;27.646;2024-02-21T13:08:44;27.87;;;19.83;;
6027;SDS011;3042;43.194;27.646;2024-02-21T13:11:12;22.33;;;18.57;;
6027;SDS011;3042;43.194;27.646;2024-02-21T13:13:39;23.17;;;19.50;;
6027;SDS011;3042;43.194;27.646;2024-02-21T13:16:08;19.50;;;17.60;;
6027;SDS011;3042;43.194;27.646;2024-02-21T13:18:35;20.33;;;18.50;;
6027;SDS011;3042;43.194;27.646;2024-02-21T13:21:04;17.10;;;15.73;;
6027;SDS011;3042;43.194;27.646;2024-02-21T13:23:32;22.10;;;19.80;;
6027;SDS011;3042;43.194;27.646;2024-02-21T13:25:59;19.10;;;17.67;;
6027;SDS011;3042;43.194;27.646;2024-02-21T13:28:26;19.60;;;17.90;;
6027;SDS011;3042;43.194;27.646;2024-02-21T13:30:54;20.67;;;18.63;;
6027;SDS011;3042;43.194;27.646;2024-02-21T13:33:22;25.63;;;18.27;;
6027;SDS011;3042;43.194;27.646;2024-02-21T13:35:49;19.27;;;17.53;;
6027;SDS011;3042;43.194;27.646;2024-02-21T13:38:17;30.07;;;17.60;;
6027;SDS011;3042;43.194;27.646;2024-02-21T13:40:44;35.65;;;19.30;;
6027;SDS011;3042;43.194;27.646;2024-02-21T13:43:11;40.40;;;20.30;;
6027;SDS011;3042;43.194;27.646;2024-02-21T13:45:39;26.73;;;18.33;;
6027;SDS011;3042;43.194;27.646;2024-02-21T13:48:09;25.83;;;18.80;;
6027;SDS011;3042;43.194;27.646;2024-02-21T13:50:41;21.57;;;18.83;;
6027;SDS011;3042;43.194;27.646;2024-02-21T13:53:08;24.70;;;17.80;;
6027;SDS011;3042;43.194;27.646;2024-02-21T13:55:36;29.17;;;19.80;;
6027;SDS011;3042;43.194;27.646;2024-02-21T13:58:03;48.17;;;35.30;;
6027;SDS011;3042;43.194;27.646;2024-02-21T14:00:30;39.73;;;26.30;;
6027;SDS011;3042;43.194;27.646;2024-02-21T14:03:01;44.97;;;39.17;;
6027;SDS011;3042;43.194;27.646;2024-02-21T14:05:28;43.13;;;28.80;;
6027;SDS011;3042;43.194;27.646;2024-02-21T14:07:57;32.30;;;27.97;;
6027;SDS011;3042;43.194;27.646;2024-02-21T14:10:24;34.07;;;28.27;;
6027;SDS011;3042;43.194;27.646;2024-02-21T14:12:51;42.00;;;30.27;;
6027;SDS011;3042;43.194;27.646;2024-02-21T14:15:18;34.73;;;25.23;;
6027;SDS011;3042;43.194;27.646;2024-02-21T14:17:46;45.65;;;30.00;;
6027;SDS011;3042;43.194;27.646;2024-02-21T14:20:13;66.53;;;39.80;;
6027;SDS011;3042;43.194;27.646;2024-02-21T14:22:41;41.73;;;25.07;;
6027;SDS011;3042;43.194;27.646;2024-02-21T14:25:10;27.57;;;22.93;;
6027;SDS011;3042;43.194;27.646;2024-02-21T14:27:37;35.77;;;23.67;;
6027;SDS011;3042;43.194;27.646;2024-02-21T14:30:05;30.90;;;22.87;;
6027;SDS011;3042;43.194;27.646;2024-02-21T14:32:36;40.27;;;23.60;;
6027;SDS011;3042;43.194;27.646;2024-02-21T14:35:03;28.23;;;23.93;;
6027;SDS011;3042;43.194;27.646;2024-02-21T14:37:31;39.43;;;23.67;;
6027;SDS011;3042;43.194;27.646;2024-02-21T14:39:58;25.63;;;21.30;;
6027;SDS011;3042;43.194;27.646;2024-02-21T14:42:27;24.67;;;20.67;;